sensor_id;sensor_type;location;lat;lon;timestamp;P1;durP1;ratioP1;P2;durP2;ratioP2
37873;SDS011;23709;48.078;11.684;2022-11-20T00:01:52;9.85;;;5.00;;
37873;SDS011;23709;48.078;11.684;2022-11-20T00:04:24;7.40;;;3.60;;
37873;SDS011;23709;48.078;11.684;2022-11-20T00:06:56;8.40;;;4.65;;
37873;SDS011;23709;48.078;11.684;2022-11-20T00:09:28;39.95;;;16.42;;
37873;SDS011;23709;48.078;11.684;2022-11-20T00:12:00;53.65;;;20.40;;
37873;SDS011;23709;48.078;11.684;2022-11-20T00:14:32;26.10;;;10.30;;
37873;SDS011;23709;48.078;11.684;2022-11-20T00:17:04;12.85;;;6.35;;
37873;SDS011;23709;48.078;11.684;2022-11-20T00:19:37;13.70;;;5.88;;
37873;SDS011;23709;48.078;11.684;2022-11-20T00:22:09;7.70;;;3.80;;
37873;SDS011;23709;48.078;11.684;2022-11-20T00:24:41;4.15;;;2.63;;
37873;SDS011;23709;48.078;11.684;2022-11-20T00:27:13;6.95;;;3.30;;
37873;SDS011;23709;48.078;11.684;2022-11-20T00:29:45;6.35;;;3.45;;
37873;SDS011;23709;48.078;11.684;2022-11-20T00:32:18;7.40;;;3.70;;
37873;SDS011;23709;48.078;11.684;2022-11-20T00:34:50;10.52;;;4.60;;
37873;SDS011;23709;48.078;11.684;2022-11-20T00:37:22;6.07;;;2.38;;
37873;SDS011;23709;48.078;11.684;2022-11-20T00:39:58;8.43;;;4.13;;
37873;SDS011;23709;48.078;11.684;2022-11-20T00:42:30;12.20;;;4.35;;
37873;SDS011;23709;48.078;11.684;2022-11-20T00:45:04;27.83;;;7.90;;
37873;SDS011;23709;48.078;11.684;2022-11-20T00:47:36;49.53;;;15.27;;
37873;SDS011;23709;48.078;11.684;2022-11-20T00:50:08;28.05;;;10.20;;
37873;SDS011;23709;48.078;11.684;2022-11-20T00:52:40;13.80;;;7.18;;
37873;SDS011;23709;48.078;11.684;2022-11-20T00:55:12;6.82;;;3.67;;
37873;SDS011;23709;48.078;11.684;2022-11-20T00:57:44;5.85;;;3.78;;
37873;SDS011;23709;48.078;11.684;2022-11-20T01:00:16;6.47;;;3.30;;
37873;SDS011;23709;48.078;11.684;2022-11-20T01:02:49;4.30;;;3.50;;
37873;SDS011;23709;48.078;11.684;2022-11-20T01:05:21;4.43;;;3.10;;
37873;SDS011;23709;48.078;11.684;2022-11-20T01:07:53;6.18;;;3.40;;
37873;SDS011;23709;48.078;11.684;2022-11-20T01:10:25;6.65;;;3.28;;
37873;SDS011;23709;48.078;11.684;2022-11-20T01:12:57;3.65;;;3.00;;
37873;SDS011;23709;48.078;11.684;2022-11-20T01:15:55;5.20;;;3.28;;
37873;SDS011;23709;48.078;11.684;2022-11-20T01:18:34;8.05;;;3.08;;
37873;SDS011;23709;48.078;11.684;2022-11-20T01:21:08;6.18;;;3.30;;
37873;SDS011;23709;48.078;11.684;2022-11-20T01:23:42;5.20;;;3.60;;
37873;SDS011;23709;48.078;11.684;2022-11-20T01:26:16;7.05;;;3.67;;
37873;SDS011;23709;48.078;11.684;2022-11-20T01:28:53;5.55;;;3.30;;
37873;SDS011;23709;48.078;11.684;2022-11-20T01:31:30;5.95;;;4.03;;
37873;SDS011;23709;48.078;11.684;2022-11-20T01:34:11;6.13;;;3.55;;
37873;SDS011;23709;48.078;11.684;2022-11-20T01:36:45;5.72;;;3.60;;
37873;SDS011;23709;48.078;11.684;2022-11-20T01:39:18;11.23;;;6.20;;
37873;SDS011;23709;48.078;11.684;2022-11-20T01:41:54;6.05;;;3.35;;
37873;SDS011;23709;48.078;11.684;2022-11-20T01:50:25;5.75;;;4.05;;
37873;SDS011;23709;48.078;11.684;2022-11-20T01:52:58;5.28;;;3.38;;
37873;SDS011;23709;48.078;11.684;2022-11-20T01:55:36;5.75;;;4.10;;
37873;SDS011;23709;48.078;11.684;2022-11-20T01:58:14;7.35;;;4.25;;
37873;SDS011;23709;48.078;11.684;2022-11-20T02:00:48;6.13;;;3.53;;
37873;SDS011;23709;48.078;11.684;2022-11-20T02:03:20;5.35;;;3.33;;
37873;SDS011;23709;48.078;11.684;2022-11-20T02:08:30;8.07;;;4.45;;
37873;SDS011;23709;48.078;11.684;2022-11-20T02:11:03;4.55;;;3.47;;
37873;SDS011;23709;48.078;11.684;2022-11-20T02:13:36;5.85;;;3.55;;
37873;SDS011;23709;48.078;11.684;2022-11-20T02:18:48;6.72;;;3.22;;
37873;SDS011;23709;48.078;11.684;2022-11-20T02:24:38;5.55;;;3.60;;
37873;SDS011;23709;48.078;11.684;2022-11-20T02:27:12;5.68;;;2.70;;
37873;SDS011;23709;48.078;11.684;2022-11-20T02:37:30;4.68;;;3.03;;
37873;SDS011;23709;48.078;11.684;2022-11-20T02:40:05;5.43;;;2.63;;
37873;SDS011;23709;48.078;11.684;2022-11-20T02:42:38;4.77;;;3.30;;
37873;SDS011;23709;48.078;11.684;2022-11-20T02:45:10;5.03;;;3.63;;
37873;SDS011;23709;48.078;11.684;2022-11-20T02:47:42;4.68;;;3.38;;
37873;SDS011;23709;48.078;11.684;2022-11-20T02:50:14;5.63;;;3.73;;
37873;SDS011;23709;48.078;11.684;2022-11-20T02:52:47;5.55;;;3.42;;
37873;SDS011;23709;48.078;11.684;2022-11-20T02:55:19;6.18;;;3.67;;
37873;SDS011;23709;48.078;11.684;2022-11-20T02:57:51;5.95;;;4.00;;
37873;SDS011;23709;48.078;11.684;2022-11-20T03:00:24;5.22;;;3.60;;
37873;SDS011;23709;48.078;11.684;2022-11-20T03:02:56;6.97;;;4.03;;
37873;SDS011;23709;48.078;11.684;2022-11-20T03:05:28;4.75;;;3.53;;
37873;SDS011;23709;48.078;11.684;2022-11-20T03:08:00;5.05;;;3.72;;
37873;SDS011;23709;48.078;11.684;2022-11-20T03:10:33;6.35;;;3.70;;
37873;SDS011;23709;48.078;11.684;2022-11-20T03:13:05;6.40;;;3.53;;
37873;SDS011;23709;48.078;11.684;2022-11-20T03:15:37;9.50;;;3.75;;
37873;SDS011;23709;48.078;11.684;2022-11-20T03:18:09;8.93;;;4.07;;
37873;SDS011;23709;48.078;11.684;2022-11-20T03:20:41;7.65;;;3.85;;
37873;SDS011;23709;48.078;11.684;2022-11-20T03:23:13;7.47;;;3.83;;
37873;SDS011;23709;48.078;11.684;2022-11-20T03:25:45;6.13;;;4.00;;
37873;SDS011;23709;48.078;11.684;2022-11-20T03:28:17;5.97;;;3.88;;
37873;SDS011;23709;48.078;11.684;2022-11-20T03:30:50;8.40;;;4.38;;
37873;SDS011;23709;48.078;11.684;2022-11-20T03:33:22;6.00;;;3.95;;
37873;SDS011;23709;48.078;11.684;2022-11-20T03:35:54;6.35;;;4.30;;
37873;SDS011;23709;48.078;11.684;2022-11-20T03:38:28;7.25;;;4.10;;
37873;SDS011;23709;48.078;11.684;2022-11-20T03:41:15;8.20;;;4.20;;
37873;SDS011;23709;48.078;11.684;2022-11-20T03:43:54;5.13;;;3.80;;
37873;SDS011;23709;48.078;11.684;2022-11-20T03:46:28;7.32;;;3.75;;
37873;SDS011;23709;48.078;11.684;2022-11-20T03:49:00;5.40;;;3.85;;
37873;SDS011;23709;48.078;11.684;2022-11-20T03:51:33;5.18;;;3.22;;
37873;SDS011;23709;48.078;11.684;2022-11-20T03:54:07;6.35;;;3.95;;
37873;SDS011;23709;48.078;11.684;2022-11-20T03:56:40;4.78;;;3.50;;
37873;SDS011;23709;48.078;11.684;2022-11-20T03:59:12;6.95;;;4.47;;
37873;SDS011;23709;48.078;11.684;2022-11-20T04:01:44;5.90;;;3.80;;
37873;SDS011;23709;48.078;11.684;2022-11-20T04:04:20;5.00;;;3.70;;
37873;SDS011;23709;48.078;11.684;2022-11-20T04:06:52;8.90;;;4.15;;
37873;SDS011;23709;48.078;11.684;2022-11-20T04:09:24;8.93;;;4.07;;
37873;SDS011;23709;48.078;11.684;2022-11-20T04:11:56;7.75;;;3.47;;
37873;SDS011;23709;48.078;11.684;2022-11-20T04:14:29;5.65;;;3.90;;
37873;SDS011;23709;48.078;11.684;2022-11-20T04:17:02;6.53;;;4.38;;
37873;SDS011;23709;48.078;11.684;2022-11-20T04:19:35;9.50;;;4.13;;
37873;SDS011;23709;48.078;11.684;2022-11-20T04:22:07;5.68;;;3.47;;
37873;SDS011;23709;48.078;11.684;2022-11-20T04:24:40;8.07;;;3.90;;
37873;SDS011;23709;48.078;11.684;2022-11-20T04:27:13;5.90;;;3.75;;
37873;SDS011;23709;48.078;11.684;2022-11-20T04:29:48;5.50;;;3.83;;
37873;SDS011;23709;48.078;11.684;2022-11-20T04:32:20;5.82;;;4.00;;
37873;SDS011;23709;48.078;11.684;2022-11-20T04:34:52;8.82;;;3.88;;
37873;SDS011;23709;48.078;11.684;2022-11-20T04:37:24;4.50;;;3.40;;
37873;SDS011;23709;48.078;11.684;2022-11-20T04:39:56;4.75;;;3.47;;
37873;SDS011;23709;48.078;11.684;2022-11-20T04:42:28;6.75;;;3.80;;
37873;SDS011;23709;48.078;11.684;2022-11-20T04:45:03;4.38;;;3.53;;
37873;SDS011;23709;48.078;11.684;2022-11-20T04:47:42;8.90;;;4.00;;
37873;SDS011;23709;48.078;11.684;2022-11-20T04:50:14;4.88;;;4.03;;
37873;SDS011;23709;48.078;11.684;2022-11-20T04:52:46;6.80;;;3.83;;
37873;SDS011;23709;48.078;11.684;2022-11-20T04:55:18;5.22;;;3.83;;
37873;SDS011;23709;48.078;11.684;2022-11-20T04:57:53;7.32;;;4.05;;
37873;SDS011;23709;48.078;11.684;2022-11-20T05:00:25;5.85;;;3.72;;
37873;SDS011;23709;48.078;11.684;2022-11-20T05:02:58;6.03;;;4.05;;
37873;SDS011;23709;48.078;11.684;2022-11-20T05:05:30;5.43;;;3.50;;
37873;SDS011;23709;48.078;11.684;2022-11-20T05:08:02;7.25;;;4.57;;
37873;SDS011;23709;48.078;11.684;2022-11-20T05:10:34;5.75;;;3.22;;
37873;SDS011;23709;48.078;11.684;2022-11-20T05:13:06;6.80;;;3.92;;
37873;SDS011;23709;48.078;11.684;2022-11-20T05:15:38;9.77;;;4.10;;
37873;SDS011;23709;48.078;11.684;2022-11-20T05:18:11;5.95;;;3.40;;
37873;SDS011;23709;48.078;11.684;2022-11-20T05:20:43;4.82;;;3.65;;
37873;SDS011;23709;48.078;11.684;2022-11-20T05:23:15;5.93;;;4.10;;
37873;SDS011;23709;48.078;11.684;2022-11-20T05:25:47;6.40;;;3.83;;
37873;SDS011;23709;48.078;11.684;2022-11-20T05:28:22;4.65;;;3.25;;
37873;SDS011;23709;48.078;11.684;2022-11-20T05:30:55;5.75;;;3.40;;
37873;SDS011;23709;48.078;11.684;2022-11-20T05:33:28;7.85;;;3.80;;
37873;SDS011;23709;48.078;11.684;2022-11-20T05:36:00;4.55;;;3.50;;
37873;SDS011;23709;48.078;11.684;2022-11-20T05:38:33;5.88;;;3.97;;
37873;SDS011;23709;48.078;11.684;2022-11-20T05:41:09;5.25;;;3.63;;
37873;SDS011;23709;48.078;11.684;2022-11-20T05:43:43;4.90;;;3.78;;
37873;SDS011;23709;48.078;11.684;2022-11-20T05:46:17;6.63;;;3.35;;
37873;SDS011;23709;48.078;11.684;2022-11-20T05:48:57;6.30;;;3.88;;
37873;SDS011;23709;48.078;11.684;2022-11-20T05:51:29;4.63;;;3.30;;
37873;SDS011;23709;48.078;11.684;2022-11-20T05:54:01;7.82;;;4.18;;
37873;SDS011;23709;48.078;11.684;2022-11-20T05:56:33;7.07;;;4.22;;
37873;SDS011;23709;48.078;11.684;2022-11-20T05:59:06;5.13;;;3.87;;
37873;SDS011;23709;48.078;11.684;2022-11-20T06:01:38;6.72;;;4.65;;
37873;SDS011;23709;48.078;11.684;2022-11-20T06:04:10;8.13;;;4.85;;
37873;SDS011;23709;48.078;11.684;2022-11-20T06:06:42;7.80;;;5.32;;
37873;SDS011;23709;48.078;11.684;2022-11-20T06:09:14;6.32;;;4.72;;
37873;SDS011;23709;48.078;11.684;2022-11-20T06:11:46;12.95;;;5.30;;
37873;SDS011;23709;48.078;11.684;2022-11-20T06:14:19;6.15;;;3.97;;
37873;SDS011;23709;48.078;11.684;2022-11-20T06:16:51;8.52;;;4.90;;
37873;SDS011;23709;48.078;11.684;2022-11-20T06:19:23;7.38;;;4.65;;
37873;SDS011;23709;48.078;11.684;2022-11-20T06:21:55;4.50;;;2.55;;
37873;SDS011;23709;48.078;11.684;2022-11-20T06:24:27;8.05;;;5.10;;
37873;SDS011;23709;48.078;11.684;2022-11-20T06:26:59;6.22;;;4.18;;
37873;SDS011;23709;48.078;11.684;2022-11-20T06:29:31;5.15;;;3.63;;
37873;SDS011;23709;48.078;11.684;2022-11-20T06:32:04;6.65;;;4.78;;
37873;SDS011;23709;48.078;11.684;2022-11-20T06:34:36;8.63;;;4.75;;
37873;SDS011;23709;48.078;11.684;2022-11-20T06:37:08;7.53;;;4.40;;
37873;SDS011;23709;48.078;11.684;2022-11-20T06:39:40;6.90;;;4.28;;
37873;SDS011;23709;48.078;11.684;2022-11-20T06:42:13;6.32;;;4.25;;
37873;SDS011;23709;48.078;11.684;2022-11-20T06:44:45;8.57;;;4.63;;
37873;SDS011;23709;48.078;11.684;2022-11-20T06:47:17;7.60;;;4.25;;
37873;SDS011;23709;48.078;11.684;2022-11-20T06:49:49;6.10;;;3.70;;
37873;SDS011;23709;48.078;11.684;2022-11-20T06:52:21;7.30;;;4.18;;
37873;SDS011;23709;48.078;11.684;2022-11-20T06:54:53;7.38;;;4.30;;
37873;SDS011;23709;48.078;11.684;2022-11-20T06:57:25;7.45;;;4.68;;
37873;SDS011;23709;48.078;11.684;2022-11-20T06:59:58;5.60;;;4.30;;
37873;SDS011;23709;48.078;11.684;2022-11-20T07:02:30;7.80;;;4.10;;
37873;SDS011;23709;48.078;11.684;2022-11-20T07:05:02;8.05;;;4.45;;
37873;SDS011;23709;48.078;11.684;2022-11-20T07:07:34;7.18;;;4.00;;
37873;SDS011;23709;48.078;11.684;2022-11-20T07:10:06;6.05;;;4.30;;
37873;SDS011;23709;48.078;11.684;2022-11-20T07:12:39;7.97;;;4.38;;
37873;SDS011;23709;48.078;11.684;2022-11-20T07:15:11;7.00;;;4.63;;
37873;SDS011;23709;48.078;11.684;2022-11-20T07:17:44;6.30;;;3.25;;
37873;SDS011;23709;48.078;11.684;2022-11-20T07:20:16;6.15;;;3.95;;
37873;SDS011;23709;48.078;11.684;2022-11-20T07:22:52;6.35;;;4.22;;
37873;SDS011;23709;48.078;11.684;2022-11-20T07:25:26;7.18;;;4.00;;
37873;SDS011;23709;48.078;11.684;2022-11-20T07:30:32;9.52;;;3.60;;
37873;SDS011;23709;48.078;11.684;2022-11-20T07:33:04;6.53;;;4.43;;
37873;SDS011;23709;48.078;11.684;2022-11-20T07:35:36;6.68;;;3.97;;
37873;SDS011;23709;48.078;11.684;2022-11-20T07:38:08;7.70;;;4.15;;
37873;SDS011;23709;48.078;11.684;2022-11-20T07:40:40;6.50;;;4.40;;
37873;SDS011;23709;48.078;11.684;2022-11-20T07:43:13;5.95;;;4.07;;
37873;SDS011;23709;48.078;11.684;2022-11-20T07:45:46;5.28;;;3.97;;
37873;SDS011;23709;48.078;11.684;2022-11-20T07:48:18;6.22;;;4.30;;
37873;SDS011;23709;48.078;11.684;2022-11-20T07:50:54;5.80;;;4.30;;
37873;SDS011;23709;48.078;11.684;2022-11-20T07:53:26;7.50;;;4.03;;
37873;SDS011;23709;48.078;11.684;2022-11-20T07:55:59;6.45;;;4.30;;
37873;SDS011;23709;48.078;11.684;2022-11-20T08:01:06;6.20;;;3.23;;
37873;SDS011;23709;48.078;11.684;2022-11-20T08:03:38;6.53;;;3.95;;
37873;SDS011;23709;48.078;11.684;2022-11-20T08:06:11;5.78;;;3.33;;
37873;SDS011;23709;48.078;11.684;2022-11-20T08:08:43;5.07;;;3.42;;
37873;SDS011;23709;48.078;11.684;2022-11-20T08:11:15;5.20;;;3.65;;
37873;SDS011;23709;48.078;11.684;2022-11-20T08:14:06;7.25;;;3.70;;
37873;SDS011;23709;48.078;11.684;2022-11-20T08:16:45;5.53;;;2.72;;
37873;SDS011;23709;48.078;11.684;2022-11-20T08:19:18;5.47;;;3.90;;
37873;SDS011;23709;48.078;11.684;2022-11-20T08:21:51;4.53;;;3.13;;
37873;SDS011;23709;48.078;11.684;2022-11-20T08:24:23;5.20;;;3.60;;
37873;SDS011;23709;48.078;11.684;2022-11-20T08:26:58;5.40;;;3.42;;
37873;SDS011;23709;48.078;11.684;2022-11-20T08:29:30;7.13;;;3.83;;
37873;SDS011;23709;48.078;11.684;2022-11-20T08:32:02;5.85;;;3.67;;
37873;SDS011;23709;48.078;11.684;2022-11-20T08:34:34;2.67;;;1.98;;
37873;SDS011;23709;48.078;11.684;2022-11-20T08:37:07;6.20;;;3.47;;
37873;SDS011;23709;48.078;11.684;2022-11-20T08:39:39;6.55;;;3.88;;
37873;SDS011;23709;48.078;11.684;2022-11-20T08:42:11;5.63;;;3.25;;
37873;SDS011;23709;48.078;11.684;2022-11-20T08:44:43;6.38;;;3.88;;
37873;SDS011;23709;48.078;11.684;2022-11-20T08:47:15;7.03;;;3.70;;
37873;SDS011;23709;48.078;11.684;2022-11-20T08:49:47;6.63;;;3.75;;
37873;SDS011;23709;48.078;11.684;2022-11-20T08:52:19;4.22;;;3.25;;
37873;SDS011;23709;48.078;11.684;2022-11-20T08:54:51;5.70;;;2.95;;
37873;SDS011;23709;48.078;11.684;2022-11-20T08:57:23;6.50;;;3.38;;
37873;SDS011;23709;48.078;11.684;2022-11-20T08:59:55;5.93;;;3.20;;
37873;SDS011;23709;48.078;11.684;2022-11-20T09:02:37;3.38;;;2.03;;
37873;SDS011;23709;48.078;11.684;2022-11-20T09:05:09;5.25;;;3.45;;
37873;SDS011;23709;48.078;11.684;2022-11-20T09:07:41;3.58;;;2.70;;
37873;SDS011;23709;48.078;11.684;2022-11-20T09:10:14;5.70;;;3.50;;
37873;SDS011;23709;48.078;11.684;2022-11-20T09:12:55;4.10;;;2.80;;
37873;SDS011;23709;48.078;11.684;2022-11-20T09:15:27;6.97;;;5.40;;
37873;SDS011;23709;48.078;11.684;2022-11-20T09:18:00;4.93;;;2.90;;
37873;SDS011;23709;48.078;11.684;2022-11-20T09:20:34;6.15;;;3.22;;
37873;SDS011;23709;48.078;11.684;2022-11-20T09:23:07;6.32;;;3.00;;
37873;SDS011;23709;48.078;11.684;2022-11-20T09:25:39;10.30;;;4.85;;
37873;SDS011;23709;48.078;11.684;2022-11-20T09:28:11;12.90;;;6.25;;
37873;SDS011;23709;48.078;11.684;2022-11-20T09:30:43;10.02;;;5.97;;
37873;SDS011;23709;48.078;11.684;2022-11-20T09:33:16;8.65;;;5.10;;
37873;SDS011;23709;48.078;11.684;2022-11-20T09:35:48;7.40;;;4.20;;
37873;SDS011;23709;48.078;11.684;2022-11-20T09:38:20;10.25;;;5.55;;
37873;SDS011;23709;48.078;11.684;2022-11-20T09:46:47;8.68;;;3.95;;
37873;SDS011;23709;48.078;11.684;2022-11-20T09:49:36;13.27;;;7.07;;
37873;SDS011;23709;48.078;11.684;2022-11-20T09:55:21;10.13;;;5.65;;
37873;SDS011;23709;48.078;11.684;2022-11-20T09:57:53;6.80;;;3.80;;
37873;SDS011;23709;48.078;11.684;2022-11-20T10:00:26;6.20;;;3.70;;
37873;SDS011;23709;48.078;11.684;2022-11-20T10:08:25;3.58;;;2.30;;
37873;SDS011;23709;48.078;11.684;2022-11-20T10:11:07;2.53;;;1.75;;
37873;SDS011;23709;48.078;11.684;2022-11-20T10:22:53;3.45;;;1.95;;
37873;SDS011;23709;48.078;11.684;2022-11-20T10:25:39;3.97;;;2.00;;
37873;SDS011;23709;48.078;11.684;2022-11-20T10:31:03;3.60;;;2.20;;
37873;SDS011;23709;48.078;11.684;2022-11-20T10:33:41;3.28;;;2.13;;
37873;SDS011;23709;48.078;11.684;2022-11-20T10:36:38;3.78;;;2.10;;
37873;SDS011;23709;48.078;11.684;2022-11-20T10:39:28;4.60;;;2.45;;
37873;SDS011;23709;48.078;11.684;2022-11-20T10:42:01;3.08;;;2.00;;
37873;SDS011;23709;48.078;11.684;2022-11-20T10:44:34;5.35;;;2.42;;
37873;SDS011;23709;48.078;11.684;2022-11-20T10:47:27;6.18;;;2.30;;
37873;SDS011;23709;48.078;11.684;2022-11-20T10:50:03;2.80;;;2.17;;
37873;SDS011;23709;48.078;11.684;2022-11-20T10:55:25;2.92;;;2.28;;
37873;SDS011;23709;48.078;11.684;2022-11-20T10:58:17;3.67;;;2.42;;
37873;SDS011;23709;48.078;11.684;2022-11-20T11:01:11;2.28;;;1.65;;
37873;SDS011;23709;48.078;11.684;2022-11-20T11:03:46;2.60;;;1.95;;
37873;SDS011;23709;48.078;11.684;2022-11-20T11:09:19;4.18;;;1.95;;
37873;SDS011;23709;48.078;11.684;2022-11-20T11:12:00;5.03;;;1.40;;
37873;SDS011;23709;48.078;11.684;2022-11-20T11:17:23;5.97;;;1.73;;
37873;SDS011;23709;48.078;11.684;2022-11-20T11:20:27;3.88;;;2.05;;
37873;SDS011;23709;48.078;11.684;2022-11-20T11:22:58;2.85;;;1.80;;
37873;SDS011;23709;48.078;11.684;2022-11-20T11:25:31;2.58;;;1.70;;
37873;SDS011;23709;48.078;11.684;2022-11-20T11:30:49;3.60;;;1.70;;
37873;SDS011;23709;48.078;11.684;2022-11-20T11:33:22;2.33;;;1.88;;
37873;SDS011;23709;48.078;11.684;2022-11-20T11:35:57;3.65;;;2.10;;
37873;SDS011;23709;48.078;11.684;2022-11-20T11:38:38;3.28;;;2.00;;
37873;SDS011;23709;48.078;11.684;2022-11-20T11:41:15;4.82;;;2.40;;
37873;SDS011;23709;48.078;11.684;2022-11-20T11:43:54;3.60;;;1.98;;
37873;SDS011;23709;48.078;11.684;2022-11-20T11:46:51;3.30;;;2.55;;
37873;SDS011;23709;48.078;11.684;2022-11-20T11:49:25;1.98;;;1.70;;
37873;SDS011;23709;48.078;11.684;2022-11-20T11:54:52;2.50;;;2.10;;
37873;SDS011;23709;48.078;11.684;2022-11-20T11:57:29;4.70;;;2.65;;
37873;SDS011;23709;48.078;11.684;2022-11-20T12:00:25;4.38;;;1.80;;
37873;SDS011;23709;48.078;11.684;2022-11-20T12:05:54;4.65;;;1.73;;
37873;SDS011;23709;48.078;11.684;2022-11-20T12:08:48;2.13;;;1.80;;
37873;SDS011;23709;48.078;11.684;2022-11-20T12:14:33;3.25;;;1.85;;
37873;SDS011;23709;48.078;11.684;2022-11-20T12:17:11;3.60;;;2.00;;
37873;SDS011;23709;48.078;11.684;2022-11-20T12:19:45;2.03;;;1.73;;
37873;SDS011;23709;48.078;11.684;2022-11-20T12:22:32;2.45;;;1.80;;
37873;SDS011;23709;48.078;11.684;2022-11-20T12:25:20;5.35;;;2.05;;
37873;SDS011;23709;48.078;11.684;2022-11-20T12:28:13;2.33;;;1.80;;
37873;SDS011;23709;48.078;11.684;2022-11-20T12:36:34;4.57;;;2.67;;
37873;SDS011;23709;48.078;11.684;2022-11-20T12:39:29;4.07;;;1.90;;
37873;SDS011;23709;48.078;11.684;2022-11-20T12:45:14;2.47;;;1.90;;
37873;SDS011;23709;48.078;11.684;2022-11-20T12:59:23;7.95;;;3.08;;
37873;SDS011;23709;48.078;11.684;2022-11-20T13:02:27;3.50;;;2.45;;
37873;SDS011;23709;48.078;11.684;2022-11-20T13:07:52;3.15;;;2.05;;
37873;SDS011;23709;48.078;11.684;2022-11-20T13:19:36;3.70;;;2.75;;
37873;SDS011;23709;48.078;11.684;2022-11-20T13:22:09;4.68;;;2.75;;
37873;SDS011;23709;48.078;11.684;2022-11-20T13:24:49;6.13;;;2.85;;
37873;SDS011;23709;48.078;11.684;2022-11-20T13:27:23;3.65;;;2.70;;
37873;SDS011;23709;48.078;11.684;2022-11-20T13:29:59;4.90;;;2.83;;
37873;SDS011;23709;48.078;11.684;2022-11-20T13:32:53;5.15;;;3.03;;
37873;SDS011;23709;48.078;11.684;2022-11-20T13:44:10;8.07;;;2.97;;
37873;SDS011;23709;48.078;11.684;2022-11-20T13:46:55;5.43;;;3.13;;
37873;SDS011;23709;48.078;11.684;2022-11-20T14:00:45;2.55;;;2.00;;
37873;SDS011;23709;48.078;11.684;2022-11-20T14:03:28;3.22;;;2.42;;
37873;SDS011;23709;48.078;11.684;2022-11-20T14:06:29;3.53;;;2.85;;
37873;SDS011;23709;48.078;11.684;2022-11-20T14:09:04;2.97;;;2.30;;
37873;SDS011;23709;48.078;11.684;2022-11-20T14:11:45;6.03;;;2.97;;
37873;SDS011;23709;48.078;11.684;2022-11-20T14:14:19;3.17;;;2.05;;
37873;SDS011;23709;48.078;11.684;2022-11-20T14:17:04;3.92;;;2.10;;
37873;SDS011;23709;48.078;11.684;2022-11-20T14:19:40;2.88;;;1.90;;
37873;SDS011;23709;48.078;11.684;2022-11-20T14:27:52;6.88;;;3.50;;
37873;SDS011;23709;48.078;11.684;2022-11-20T14:30:42;7.72;;;4.10;;
37873;SDS011;23709;48.078;11.684;2022-11-20T14:33:16;5.45;;;2.70;;
37873;SDS011;23709;48.078;11.684;2022-11-20T14:35:52;5.37;;;3.57;;
37873;SDS011;23709;48.078;11.684;2022-11-20T14:38:27;7.63;;;4.78;;
37873;SDS011;23709;48.078;11.684;2022-11-20T14:41:07;5.18;;;3.50;;
37873;SDS011;23709;48.078;11.684;2022-11-20T14:43:47;7.45;;;3.78;;
37873;SDS011;23709;48.078;11.684;2022-11-20T14:46:31;6.65;;;3.63;;
37873;SDS011;23709;48.078;11.684;2022-11-20T14:51:37;5.03;;;3.33;;
37873;SDS011;23709;48.078;11.684;2022-11-20T14:54:17;5.00;;;3.85;;
37873;SDS011;23709;48.078;11.684;2022-11-20T14:56:59;6.38;;;3.30;;
37873;SDS011;23709;48.078;11.684;2022-11-20T14:59:33;7.15;;;3.53;;
37873;SDS011;23709;48.078;11.684;2022-11-20T15:02:08;5.20;;;3.60;;
37873;SDS011;23709;48.078;11.684;2022-11-20T15:04:50;3.38;;;2.30;;
37873;SDS011;23709;48.078;11.684;2022-11-20T15:07:30;6.28;;;2.30;;
37873;SDS011;23709;48.078;11.684;2022-11-20T15:10:05;3.35;;;2.33;;
37873;SDS011;23709;48.078;11.684;2022-11-20T15:12:53;3.67;;;2.45;;
37873;SDS011;23709;48.078;11.684;2022-11-20T15:15:36;4.18;;;2.55;;
37873;SDS011;23709;48.078;11.684;2022-11-20T15:18:19;3.60;;;1.90;;
37873;SDS011;23709;48.078;11.684;2022-11-20T15:20:56;3.20;;;2.30;;
37873;SDS011;23709;48.078;11.684;2022-11-20T15:23:32;4.47;;;2.65;;
37873;SDS011;23709;48.078;11.684;2022-11-20T15:26:04;3.50;;;1.70;;
37873;SDS011;23709;48.078;11.684;2022-11-20T15:28:46;3.40;;;2.35;;
37873;SDS011;23709;48.078;11.684;2022-11-20T15:31:22;5.00;;;2.50;;
37873;SDS011;23709;48.078;11.684;2022-11-20T15:33:55;3.47;;;2.20;;
37873;SDS011;23709;48.078;11.684;2022-11-20T15:36:27;4.25;;;1.70;;
37873;SDS011;23709;48.078;11.684;2022-11-20T15:39:00;2.75;;;1.95;;
37873;SDS011;23709;48.078;11.684;2022-11-20T15:41:34;2.90;;;1.80;;
37873;SDS011;23709;48.078;11.684;2022-11-20T15:44:07;2.92;;;1.98;;
37873;SDS011;23709;48.078;11.684;2022-11-20T15:46:40;2.65;;;1.90;;
37873;SDS011;23709;48.078;11.684;2022-11-20T15:49:15;6.57;;;2.80;;
37873;SDS011;23709;48.078;11.684;2022-11-20T15:51:50;3.42;;;2.40;;
37873;SDS011;23709;48.078;11.684;2022-11-20T15:54:24;4.35;;;2.40;;
37873;SDS011;23709;48.078;11.684;2022-11-20T15:56:57;2.87;;;2.37;;
37873;SDS011;23709;48.078;11.684;2022-11-20T15:59:29;3.03;;;2.00;;
37873;SDS011;23709;48.078;11.684;2022-11-20T16:02:01;4.03;;;2.42;;
37873;SDS011;23709;48.078;11.684;2022-11-20T16:04:34;4.05;;;2.53;;
37873;SDS011;23709;48.078;11.684;2022-11-20T16:07:06;7.95;;;2.30;;
37873;SDS011;23709;48.078;11.684;2022-11-20T16:09:38;3.65;;;2.80;;
37873;SDS011;23709;48.078;11.684;2022-11-20T16:12:11;4.82;;;2.90;;
37873;SDS011;23709;48.078;11.684;2022-11-20T16:15:07;6.43;;;4.13;;
37873;SDS011;23709;48.078;11.684;2022-11-20T16:17:59;7.18;;;4.10;;
37873;SDS011;23709;48.078;11.684;2022-11-20T16:20:30;6.80;;;3.78;;
37873;SDS011;23709;48.078;11.684;2022-11-20T16:23:03;5.30;;;3.10;;
37873;SDS011;23709;48.078;11.684;2022-11-20T16:25:36;6.05;;;3.22;;
37873;SDS011;23709;48.078;11.684;2022-11-20T16:28:09;4.97;;;3.08;;
37873;SDS011;23709;48.078;11.684;2022-11-20T16:30:48;4.75;;;3.20;;
37873;SDS011;23709;48.078;11.684;2022-11-20T16:33:21;5.93;;;3.30;;
37873;SDS011;23709;48.078;11.684;2022-11-20T16:35:53;5.85;;;3.85;;
37873;SDS011;23709;48.078;11.684;2022-11-20T16:38:25;8.02;;;4.10;;
37873;SDS011;23709;48.078;11.684;2022-11-20T16:41:00;6.57;;;3.92;;
37873;SDS011;23709;48.078;11.684;2022-11-20T16:43:33;7.45;;;4.53;;
37873;SDS011;23709;48.078;11.684;2022-11-20T16:46:05;8.50;;;4.53;;
37873;SDS011;23709;48.078;11.684;2022-11-20T16:48:37;9.18;;;5.05;;
37873;SDS011;23709;48.078;11.684;2022-11-20T16:51:10;11.65;;;5.03;;
37873;SDS011;23709;48.078;11.684;2022-11-20T16:53:43;6.38;;;4.38;;
37873;SDS011;23709;48.078;11.684;2022-11-20T16:56:16;6.43;;;3.88;;
37873;SDS011;23709;48.078;11.684;2022-11-20T16:58:50;6.25;;;3.58;;
37873;SDS011;23709;48.078;11.684;2022-11-20T17:01:24;5.57;;;4.03;;
37873;SDS011;23709;48.078;11.684;2022-11-20T17:04:00;9.73;;;4.95;;
37873;SDS011;23709;48.078;11.684;2022-11-20T17:06:35;9.13;;;4.82;;
37873;SDS011;23709;48.078;11.684;2022-11-20T17:09:10;9.10;;;5.28;;
37873;SDS011;23709;48.078;11.684;2022-11-20T17:11:43;12.63;;;8.32;;
37873;SDS011;23709;48.078;11.684;2022-11-20T17:14:15;13.27;;;8.68;;
37873;SDS011;23709;48.078;11.684;2022-11-20T17:16:47;13.35;;;8.38;;
37873;SDS011;23709;48.078;11.684;2022-11-20T17:19:20;12.93;;;8.23;;
37873;SDS011;23709;48.078;11.684;2022-11-20T17:21:52;11.18;;;8.15;;
37873;SDS011;23709;48.078;11.684;2022-11-20T17:24:24;13.40;;;8.13;;
37873;SDS011;23709;48.078;11.684;2022-11-20T17:27:02;15.07;;;8.98;;
37873;SDS011;23709;48.078;11.684;2022-11-20T17:29:34;17.27;;;11.30;;
37873;SDS011;23709;48.078;11.684;2022-11-20T17:32:12;23.58;;;13.30;;
37873;SDS011;23709;48.078;11.684;2022-11-20T17:34:44;20.65;;;12.15;;